createdAt,value
2019-04-01T00:00:28.104Z,20.37
2019-04-01T00:02:53.992Z,19.73
2019-04-01T00:05:19.936Z,19.40
2019-04-01T00:07:45.811Z,19.87
2019-04-01T00:10:11.890Z,19.47
2019-04-01T00:12:37.813Z,19.33
2019-04-01T00:15:05.648Z,19.40
2019-04-01T00:17:31.714Z,19.10
2019-04-01T00:19:57.540Z,20.40
2019-04-01T00:22:23.410Z,19.33
2019-04-01T00:24:49.278Z,20.13
2019-04-01T00:27:15.108Z,19.93
2019-04-01T00:29:40.967Z,19.13
2019-04-01T00:32:06.919Z,18.97
2019-04-01T00:34:32.770Z,19.07
2019-04-01T00:36:58.588Z,19.33
2019-04-01T00:39:24.474Z,18.93
2019-04-01T00:42:01.653Z,19.37
2019-04-01T00:44:27.541Z,18.87
2019-04-01T00:46:53.386Z,18.60
2019-04-01T00:49:19.342Z,18.07
2019-04-01T00:51:45.230Z,18.73
2019-04-01T00:54:11.082Z,19.30
2019-04-01T00:56:36.925Z,18.50
2019-04-01T00:59:03.218Z,19.40
2019-04-01T01:01:29.050Z,18.93
2019-04-01T01:03:54.985Z,18.90
2019-04-01T01:06:20.940Z,19.00
2019-04-01T01:08:47.036Z,19.23
2019-04-01T01:11:12.961Z,19.07
2019-04-01T01:13:38.959Z,19.03
2019-04-01T01:16:04.915Z,19.10
2019-04-01T01:18:30.737Z,18.87
2019-04-01T01:20:56.619Z,18.27
2019-04-01T01:23:22.543Z,17.97
2019-04-01T01:25:48.357Z,18.87
2019-04-01T01:28:14.214Z,18.47
2019-04-01T01:30:40.156Z,19.77
2019-04-01T01:33:06.037Z,18.40
2019-04-01T01:35:32.681Z,19.00
2019-04-01T01:37:58.502Z,17.80
2019-04-01T01:40:24.559Z,18.63
2019-04-01T01:42:50.399Z,17.93
2019-04-01T01:45:16.416Z,19.43
2019-04-01T01:47:42.421Z,19.87
2019-04-01T01:50:08.377Z,18.33
2019-04-01T01:52:34.327Z,18.97
2019-04-01T01:55:00.495Z,19.07
2019-04-01T01:57:26.337Z,19.57
2019-04-01T01:59:52.169Z,19.63
2019-04-01T02:02:18.251Z,18.60
2019-04-01T02:04:44.163Z,18.87
2019-04-01T02:07:09.989Z,19.03
2019-04-01T02:09:35.855Z,18.30
2019-04-01T02:12:01.667Z,18.20
2019-04-01T02:14:27.640Z,18.23
2019-04-01T02:16:53.482Z,19.57
2019-04-01T02:19:19.463Z,18.20
2019-04-01T02:21:45.349Z,19.27
2019-04-01T02:24:11.212Z,19.00
2019-04-01T02:26:37.055Z,18.60
2019-04-01T02:29:03.018Z,18.90
2019-04-01T02:31:28.894Z,18.23
2019-04-01T02:33:54.715Z,17.10
2019-04-01T02:36:20.669Z,18.70
2019-04-01T02:38:46.508Z,18.57
2019-04-01T02:41:16.739Z,19.30
2019-04-01T02:43:42.672Z,18.53
2019-04-01T02:46:08.507Z,19.17
2019-04-01T02:48:34.366Z,17.73
2019-04-01T02:51:00.297Z,19.40
2019-04-01T02:53:26.141Z,17.60
2019-04-01T02:55:52.071Z,18.93
2019-04-01T02:58:18.013Z,19.50
2019-04-01T03:00:44.112Z,18.50
2019-04-01T03:03:09.978Z,19.37
2019-04-01T03:05:35.818Z,18.90
2019-04-01T03:08:01.865Z,17.40
2019-04-01T03:10:27.699Z,17.63
2019-04-01T03:12:53.676Z,17.93
2019-04-01T03:15:19.618Z,17.37
2019-04-01T03:17:45.579Z,18.73
2019-04-01T03:20:11.936Z,18.47
2019-04-01T03:22:37.755Z,18.03
2019-04-01T03:25:04.672Z,18.67
2019-04-01T03:27:30.555Z,18.23
2019-04-01T03:29:56.431Z,18.20
2019-04-01T03:32:22.370Z,17.37
2019-04-01T03:34:48.440Z,17.67
2019-04-01T03:37:14.309Z,17.43
2019-04-01T03:39:40.249Z,17.30
2019-04-01T03:42:06.232Z,16.70
2019-04-01T03:44:32.074Z,17.90
2019-04-01T03:46:58.102Z,17.93
2019-04-01T03:49:23.934Z,18.17
2019-04-01T03:51:49.847Z,18.13
2019-04-01T03:54:15.777Z,18.23
2019-04-01T03:56:41.635Z,17.97
2019-04-01T03:59:07.452Z,17.50
2019-04-01T04:01:33.334Z,17.90
2019-04-01T04:03:59.187Z,17.10
2019-04-01T04:06:25.023Z,19.50
2019-04-01T04:08:50.931Z,17.93
2019-04-01T04:11:16.881Z,18.20
2019-04-01T04:13:42.819Z,17.63
2019-04-01T04:16:08.701Z,17.70
2019-04-01T04:18:34.681Z,17.60
2019-04-01T04:21:00.627Z,18.53
2019-04-01T04:23:26.483Z,17.53
2019-04-01T04:25:52.584Z,18.00
2019-04-01T04:28:18.666Z,18.13
2019-04-01T04:30:45.186Z,17.67
2019-04-01T04:33:11.123Z,17.47
2019-04-01T04:35:36.986Z,16.97
2019-04-01T04:38:02.912Z,18.70
2019-04-01T04:40:28.839Z,17.57
2019-04-01T04:42:54.753Z,16.43
2019-04-01T04:45:20.669Z,17.20
2019-04-01T04:47:46.709Z,17.47
2019-04-01T04:50:12.752Z,16.57
2019-04-01T04:52:38.587Z,17.20
2019-04-01T04:55:05.072Z,17.07
2019-04-01T04:57:30.919Z,17.90
2019-04-01T04:59:56.961Z,17.47
2019-04-01T05:02:24.549Z,16.70
2019-04-01T05:04:50.675Z,16.93
2019-04-01T05:07:16.706Z,15.97
2019-04-01T05:09:42.590Z,15.83
2019-04-01T05:12:08.433Z,16.97
2019-04-01T05:14:34.507Z,17.97
2019-04-01T05:17:00.554Z,16.83
2019-04-01T05:19:26.621Z,16.50
2019-04-01T05:21:53.344Z,15.90
2019-04-01T05:24:19.459Z,16.70
2019-04-01T05:26:47.286Z,17.03
2019-04-01T05:29:13.404Z,17.17
2019-04-01T05:31:41.572Z,16.43
2019-04-01T05:34:11.215Z,16.40
2019-04-01T05:36:37.544Z,17.20
2019-04-01T05:39:05.865Z,16.20
2019-04-01T05:41:32.416Z,16.67
2019-04-01T05:44:02.039Z,17.67
2019-04-01T05:46:26.442Z,16.13
2019-04-01T05:48:52.622Z,17.17
2019-04-01T05:51:18.645Z,16.47
2019-04-01T05:53:45.117Z,17.93
2019-04-01T05:56:11.248Z,17.17
2019-04-01T05:58:37.317Z,16.73
2019-04-01T06:01:11.145Z,17.63
2019-04-01T06:03:37.217Z,18.17
2019-04-01T06:06:03.234Z,17.23
2019-04-01T06:08:29.293Z,17.10
2019-04-01T06:10:55.460Z,16.83
2019-04-01T06:13:21.484Z,17.03
2019-04-01T06:15:47.434Z,17.00
2019-04-01T06:18:13.479Z,17.27
2019-04-01T06:20:39.543Z,16.80
2019-04-01T06:23:05.482Z,16.80
2019-04-01T06:25:31.567Z,16.67
2019-04-01T06:27:57.467Z,17.20
2019-04-01T06:30:23.511Z,16.90
2019-04-01T06:32:49.333Z,16.00
2019-04-01T06:35:15.346Z,17.17
2019-04-01T06:37:41.479Z,17.43
2019-04-01T06:40:07.812Z,18.27
2019-04-01T06:42:33.881Z,17.30
2019-04-01T06:44:59.912Z,16.73
2019-04-01T06:47:26.027Z,17.43
2019-04-01T06:49:52.261Z,15.80
2019-04-01T06:52:18.310Z,17.37
2019-04-01T06:54:44.459Z,16.27
2019-04-01T06:57:10.392Z,17.40
2019-04-01T06:59:36.324Z,16.10
2019-04-01T07:02:02.317Z,15.73
2019-04-01T07:04:28.893Z,16.30
2019-04-01T07:06:54.722Z,17.13
2019-04-01T07:09:20.639Z,16.60
2019-04-01T07:11:46.823Z,15.43
2019-04-01T07:14:12.833Z,16.57
2019-04-01T07:16:40.174Z,15.40
2019-04-01T07:19:06.270Z,16.73
2019-04-01T07:21:32.243Z,16.03
2019-04-01T07:23:58.307Z,16.10
2019-04-01T07:26:24.151Z,16.27
2019-04-01T07:28:49.974Z,17.03
2019-04-01T07:31:16.023Z,17.27
2019-04-01T07:33:42.568Z,16.43
2019-04-01T07:36:08.649Z,16.63
2019-04-01T07:38:34.583Z,16.50
2019-04-01T07:41:00.415Z,15.67
2019-04-01T07:43:27.617Z,16.13
2019-04-01T07:45:53.668Z,16.47
2019-04-01T07:48:19.757Z,16.40
2019-04-01T07:50:45.694Z,16.00
2019-04-01T07:53:11.564Z,15.57
2019-04-01T07:55:37.632Z,17.07
2019-04-01T07:58:03.675Z,15.90
2019-04-01T08:00:29.728Z,16.27
2019-04-01T08:02:55.897Z,17.90
2019-04-01T08:05:21.731Z,17.37
2019-04-01T08:07:47.765Z,16.83
2019-04-01T08:10:14.553Z,17.67
2019-04-01T08:12:40.398Z,17.47
2019-04-01T08:15:06.712Z,18.57
2019-04-01T08:17:32.707Z,18.73
2019-04-01T08:19:59.064Z,19.10
2019-04-01T08:22:25.093Z,20.23
2019-04-01T08:27:23.775Z,20.07
2019-04-01T08:29:49.806Z,19.50
2019-04-01T08:32:15.682Z,20.60
2019-04-01T08:34:41.706Z,19.43
2019-04-01T08:37:07.835Z,19.90
2019-04-01T08:39:33.949Z,20.90
2019-04-01T08:42:00.955Z,19.93
2019-04-01T08:44:27.082Z,19.43
2019-04-01T08:46:53.231Z,19.17
2019-04-01T08:49:19.053Z,20.67
2019-04-01T08:51:45.172Z,19.00
2019-04-01T08:54:11.096Z,18.13
2019-04-01T08:56:37.973Z,17.73
2019-04-01T08:59:04.359Z,16.03
2019-04-01T09:01:35.504Z,17.20
2019-04-01T09:03:58.162Z,16.90
2019-04-01T09:06:24.073Z,18.23
2019-04-01T09:08:51.508Z,17.00
2019-04-01T09:11:17.429Z,16.97
2019-04-01T09:13:44.083Z,19.07
2019-04-01T09:16:14.721Z,19.33
2019-04-01T09:18:40.529Z,20.57
2019-04-01T09:21:06.613Z,18.80
2019-04-01T09:23:32.455Z,16.80
2019-04-01T09:25:58.298Z,17.07
2019-04-01T09:28:24.189Z,16.77
2019-04-01T09:30:50.132Z,17.10
2019-04-01T09:33:15.965Z,17.53
2019-04-01T09:35:42.042Z,16.20
2019-04-01T09:38:07.976Z,15.60
2019-04-01T09:40:34.003Z,16.23
2019-04-01T09:42:59.928Z,15.63
2019-04-01T09:45:25.971Z,16.40
2019-04-01T09:47:51.882Z,15.70
2019-04-01T09:50:18.088Z,15.83
2019-04-01T09:52:44.042Z,15.73
2019-04-01T09:55:10.055Z,15.77
2019-04-01T09:57:35.949Z,15.17
2019-04-01T10:00:07.829Z,15.83
2019-04-01T10:02:33.728Z,15.67
2019-04-01T10:04:59.656Z,16.20
2019-04-01T10:07:25.536Z,15.30
2019-04-01T10:09:51.499Z,15.80
2019-04-01T10:12:17.413Z,14.50
2019-04-01T10:14:43.244Z,15.47
2019-04-01T10:17:10.550Z,16.30
2019-04-01T10:19:36.399Z,15.67
2019-04-01T10:22:02.409Z,16.83
2019-04-01T10:24:28.552Z,15.37
2019-04-01T10:26:54.687Z,16.47
2019-04-01T10:29:20.690Z,16.43
2019-04-01T10:31:46.952Z,17.03
2019-04-01T10:34:12.833Z,16.50
2019-04-01T10:36:38.828Z,16.10
2019-04-01T10:39:06.025Z,16.37
2019-04-01T10:41:32.124Z,16.50
2019-04-01T10:43:58.027Z,16.40
2019-04-01T10:46:24.003Z,17.40
2019-04-01T10:48:50.017Z,16.53
2019-04-01T10:51:15.940Z,16.67
2019-04-01T10:53:41.863Z,17.90
2019-04-01T10:56:07.987Z,18.27
2019-04-01T10:58:34.077Z,18.07
2019-04-01T11:01:00.096Z,18.50
2019-04-01T11:03:26.312Z,17.37
2019-04-01T11:05:52.252Z,16.80
2019-04-01T11:08:18.329Z,17.63
2019-04-01T11:10:44.256Z,16.20
2019-04-01T11:13:10.128Z,16.30
2019-04-01T11:15:36.163Z,15.33
2019-04-01T11:18:02.211Z,14.40
2019-04-01T11:20:28.107Z,15.83
2019-04-01T11:22:54.148Z,14.73
2019-04-01T11:25:20.268Z,13.57
2019-04-01T11:27:46.254Z,13.57
2019-04-01T11:30:14.179Z,12.23
2019-04-01T11:32:40.756Z,11.80
2019-04-01T11:35:07.612Z,12.10
2019-04-01T11:37:33.649Z,11.60
2019-04-01T11:39:59.670Z,12.70
2019-04-01T11:42:25.537Z,12.47
2019-04-01T11:44:52.540Z,12.77
2019-04-01T11:47:21.967Z,12.90
2019-04-01T11:49:46.695Z,13.10
2019-04-01T11:52:15.535Z,12.60
2019-04-01T11:54:40.787Z,13.57
2019-04-01T11:57:06.898Z,12.97
2019-04-01T11:59:32.871Z,13.33
2019-04-01T12:01:58.776Z,14.00
2019-04-01T12:04:24.787Z,12.17
2019-04-01T12:06:50.974Z,13.33
2019-04-01T12:09:16.863Z,12.53
2019-04-01T12:11:42.784Z,12.53
2019-04-01T12:14:08.696Z,13.33
2019-04-01T12:16:34.813Z,12.93
2019-04-01T12:19:01.687Z,14.73
2019-04-01T12:21:27.577Z,14.20
2019-04-01T12:23:53.452Z,14.20
2019-04-01T12:26:19.393Z,15.00
2019-04-01T12:28:45.275Z,13.80
2019-04-01T12:31:12.970Z,13.80
2019-04-01T12:33:39.572Z,13.83
2019-04-01T12:36:06.180Z,13.90
2019-04-01T12:38:32.170Z,14.43
2019-04-01T12:40:58.163Z,14.83
2019-04-01T12:43:24.173Z,13.47
2019-04-01T12:45:50.257Z,12.73
2019-04-01T12:48:16.194Z,13.87
2019-04-01T12:50:42.185Z,13.63
2019-04-01T12:53:08.907Z,13.73
2019-04-01T12:55:34.906Z,13.07
2019-04-01T12:58:00.834Z,13.13
2019-04-01T13:00:29.105Z,13.77
2019-04-01T13:02:54.605Z,13.13
2019-04-01T13:05:20.554Z,12.83
2019-04-01T13:07:46.405Z,13.63
2019-04-01T13:10:12.513Z,13.17
2019-04-01T13:12:38.467Z,14.53
2019-04-01T13:15:05.671Z,12.15
2019-04-01T13:17:31.679Z,13.30
2019-04-01T13:19:57.723Z,13.50
2019-04-01T13:22:23.686Z,13.75
2019-04-01T13:24:49.667Z,12.23
2019-04-01T13:27:15.814Z,13.28
2019-04-01T13:29:41.706Z,12.40
2019-04-01T13:32:07.621Z,12.90
2019-04-01T13:34:35.452Z,12.23
2019-04-01T13:37:01.484Z,12.65
2019-04-01T13:39:27.643Z,12.63
2019-04-01T13:41:56.225Z,12.40
2019-04-01T13:44:35.808Z,11.73
2019-04-01T13:46:50.642Z,11.93
2019-04-01T13:49:16.813Z,11.78
2019-04-01T13:51:43.842Z,10.48
2019-04-01T13:54:11.444Z,12.98
2019-04-01T13:56:38.108Z,12.28
2019-04-01T13:59:04.108Z,13.38
2019-04-01T14:01:30.096Z,15.25
2019-04-01T14:03:55.992Z,13.62
2019-04-01T14:06:22.569Z,14.00
2019-04-01T14:08:49.258Z,12.13
2019-04-01T14:11:15.090Z,12.95
2019-04-01T14:13:41.037Z,12.43
2019-04-01T14:16:07.231Z,12.20
2019-04-01T14:18:33.205Z,12.53
2019-04-01T14:21:14.912Z,12.82
2019-04-01T14:23:28.204Z,12.90
2019-04-01T14:25:54.191Z,13.03
2019-04-01T14:28:20.297Z,14.07
2019-04-01T14:30:46.448Z,12.73
2019-04-01T14:33:12.345Z,12.73
2019-04-01T14:35:38.247Z,12.35
2019-04-01T14:38:04.268Z,12.80
2019-04-01T14:40:32.592Z,12.90
2019-04-01T14:42:58.612Z,12.80
2019-04-01T14:45:24.702Z,12.58
2019-04-01T14:47:57.411Z,12.88
2019-04-01T14:50:18.601Z,13.03
2019-04-01T14:52:44.857Z,11.85
2019-04-01T14:55:11.035Z,13.53
2019-04-01T14:57:36.917Z,14.15
2019-04-01T15:00:06.602Z,14.38
2019-04-01T15:02:32.758Z,14.20
2019-04-01T15:04:58.767Z,13.90
2019-04-01T15:07:27.907Z,13.45
2019-04-01T15:09:53.964Z,13.05
2019-04-01T15:12:19.950Z,13.68
2019-04-01T15:14:45.885Z,14.43
2019-04-01T15:17:14.954Z,15.10
2019-04-01T15:19:40.960Z,15.68
2019-04-01T15:22:07.183Z,15.75
2019-04-01T15:24:33.296Z,15.08
2019-04-01T15:26:59.483Z,15.63
2019-04-01T15:29:25.514Z,15.58
2019-04-01T15:31:51.703Z,15.75
2019-04-01T15:34:19.363Z,16.45
2019-04-01T15:36:45.602Z,15.08
2019-04-01T15:39:15.186Z,14.63
2019-04-01T15:41:41.100Z,14.68
2019-04-01T15:44:07.103Z,14.25
2019-04-01T15:46:33.097Z,14.95
2019-04-01T15:48:59.016Z,13.85
2019-04-01T15:51:25.010Z,14.47
2019-04-01T15:53:50.905Z,14.23
2019-04-01T15:56:16.855Z,15.28
2019-04-01T15:58:42.857Z,14.15
2019-04-01T16:01:08.886Z,15.53
2019-04-01T16:03:34.939Z,16.10
2019-04-01T16:06:00.934Z,14.95
2019-04-01T16:08:26.939Z,15.85
2019-04-01T16:10:52.913Z,15.45
2019-04-01T16:13:18.981Z,15.83
2019-04-01T16:15:45.089Z,15.90
2019-04-01T16:18:10.993Z,15.30
2019-04-01T16:20:36.891Z,14.90
2019-04-01T16:23:03.038Z,15.37
2019-04-01T16:25:28.948Z,14.30
2019-04-01T16:27:54.845Z,15.50
2019-04-01T16:30:20.833Z,15.33
2019-04-01T16:32:46.649Z,14.50
2019-04-01T16:35:12.679Z,14.90
2019-04-01T16:37:38.759Z,14.87
2019-04-01T16:40:06.019Z,14.50
2019-04-01T16:42:32.043Z,14.30
2019-04-01T16:44:58.093Z,14.80
2019-04-01T16:47:24.089Z,14.80
2019-04-01T16:49:50.056Z,15.35
2019-04-01T16:52:16.087Z,14.40
2019-04-01T16:54:45.885Z,14.75
2019-04-01T16:57:11.783Z,16.07
2019-04-01T16:59:37.735Z,15.70
2019-04-01T17:02:17.004Z,15.97
2019-04-01T17:04:31.631Z,14.53
2019-04-01T17:06:57.703Z,15.23
2019-04-01T17:09:23.817Z,15.10
2019-04-01T17:11:49.809Z,15.30
2019-04-01T17:14:15.894Z,15.33
2019-04-01T17:16:41.888Z,15.33
2019-04-01T17:19:07.971Z,17.00
2019-04-01T17:21:34.341Z,15.03
2019-04-01T17:24:02.357Z,15.20
2019-04-01T17:26:28.499Z,14.63
2019-04-01T17:28:54.391Z,15.23
2019-04-01T17:31:20.393Z,15.25
2019-04-01T17:33:46.842Z,13.97
2019-04-01T17:36:15.842Z,14.67
2019-04-01T17:38:41.648Z,15.53
2019-04-01T17:41:07.662Z,14.90
2019-04-01T17:43:33.640Z,14.63
2019-04-01T17:46:00.502Z,14.67
2019-04-01T17:48:26.654Z,14.30
2019-04-01T17:50:52.646Z,13.57
2019-04-01T17:53:18.562Z,14.83
2019-04-01T17:55:45.740Z,14.70
2019-04-01T17:58:12.091Z,14.73
2019-04-01T18:00:41.111Z,14.17
2019-04-01T18:03:09.495Z,14.10
2019-04-01T18:05:35.617Z,15.70
2019-04-01T18:08:01.712Z,14.63
2019-04-01T18:10:28.276Z,14.50
2019-04-01T18:12:54.478Z,13.87
2019-04-01T18:15:20.791Z,14.80
2019-04-01T18:17:46.899Z,14.83
2019-04-01T18:20:13.013Z,15.80
2019-04-01T18:22:39.137Z,14.53
2019-04-01T18:25:05.498Z,13.57
2019-04-01T18:27:31.501Z,14.27
2019-04-01T18:29:57.405Z,14.10
2019-04-01T18:32:23.557Z,14.17
2019-04-01T18:34:49.470Z,15.00
2019-04-01T18:37:15.617Z,19.50
2019-04-01T18:39:47.890Z,14.53
2019-04-01T18:42:09.612Z,16.37
2019-04-01T18:44:35.728Z,23.40
2019-04-01T18:47:03.935Z,22.70
2019-04-01T18:49:29.614Z,22.60
2019-04-01T18:51:55.503Z,22.83
2019-04-01T18:54:21.535Z,21.57
2019-04-01T18:56:47.785Z,21.13
2019-04-01T18:59:13.923Z,19.80
2019-04-01T19:01:39.828Z,19.87
2019-04-01T19:04:05.848Z,18.93
2019-04-01T19:06:31.973Z,18.20
2019-04-01T19:09:08.695Z,17.10
2019-04-01T19:11:25.658Z,17.77
2019-04-01T19:13:51.554Z,16.77
2019-04-01T19:16:17.508Z,16.67
2019-04-01T19:18:43.564Z,16.57
2019-04-01T19:21:09.781Z,16.50
2019-04-01T19:25:41.059Z,16.47
2019-04-01T19:28:07.080Z,19.40
2019-04-01T19:30:33.264Z,16.97
2019-04-01T19:32:59.168Z,17.40
2019-04-01T19:35:25.039Z,17.80
2019-04-01T19:37:50.984Z,17.50
2019-04-01T19:40:20.267Z,18.00
2019-04-01T19:42:44.991Z,17.80
2019-04-01T19:45:12.420Z,18.27
2019-04-01T19:47:38.418Z,17.87
2019-04-01T19:50:06.398Z,18.13
2019-04-01T19:52:32.423Z,18.73
2019-04-01T19:54:58.329Z,18.20
2019-04-01T19:57:24.682Z,18.50
2019-04-01T19:59:50.711Z,18.00
2019-04-01T20:02:16.683Z,18.17
2019-04-01T20:04:42.786Z,16.77
2019-04-01T20:07:08.884Z,17.33
2019-04-01T20:09:34.820Z,18.17
2019-04-01T20:12:00.703Z,17.83
2019-04-01T20:14:26.698Z,17.50
2019-04-01T20:16:52.735Z,18.07
2019-04-01T20:19:18.733Z,18.47
2019-04-01T20:21:47.275Z,17.83
2019-04-01T20:24:12.419Z,18.87
2019-04-01T20:26:38.563Z,18.17
2019-04-01T20:29:04.816Z,18.63
2019-04-01T20:31:30.810Z,19.40
2019-04-01T20:33:56.920Z,18.67
2019-04-01T20:36:28.649Z,19.57
2019-04-01T20:38:52.757Z,19.10
2019-04-01T20:41:18.921Z,19.13
2019-04-01T20:43:45.052Z,18.73
2019-04-01T20:46:11.390Z,18.83
2019-04-01T20:48:37.400Z,18.83
2019-04-01T20:51:03.502Z,19.77
2019-04-01T20:53:29.509Z,18.00
2019-04-01T20:55:55.975Z,20.57
2019-04-01T20:58:22.113Z,18.50
2019-04-01T21:00:48.150Z,18.40
2019-04-01T21:03:14.863Z,18.67
2019-04-01T21:05:41.351Z,19.40
2019-04-01T21:08:07.407Z,17.73
2019-04-01T21:10:33.910Z,18.77
2019-04-01T21:13:00.410Z,18.10
2019-04-01T21:15:27.053Z,17.83
2019-04-01T21:17:53.128Z,19.20
2019-04-01T21:20:19.138Z,17.77
2019-04-01T21:22:45.076Z,16.93
2019-04-01T21:25:11.768Z,17.03
2019-04-01T21:27:38.175Z,17.77
2019-04-01T21:30:09.439Z,17.47
2019-04-01T21:32:35.548Z,17.60
2019-04-01T21:35:01.947Z,16.97
2019-04-01T21:37:27.948Z,17.57
2019-04-01T21:39:53.963Z,17.07
2019-04-01T21:42:19.942Z,17.40
2019-04-01T21:44:47.441Z,16.90
2019-04-01T21:47:13.534Z,16.10
2019-04-01T21:49:39.437Z,16.43
2019-04-01T21:52:06.056Z,17.13
2019-04-01T21:54:32.083Z,17.47
2019-04-01T21:56:58.167Z,15.63
2019-04-01T21:59:24.143Z,16.43
2019-04-01T22:01:50.231Z,16.60
2019-04-01T22:04:16.104Z,16.53
2019-04-01T22:06:42.153Z,15.67
2019-04-01T22:09:09.253Z,17.03
2019-04-01T22:11:35.328Z,16.40
2019-04-01T22:14:01.322Z,16.00
2019-04-01T22:16:27.184Z,16.60
2019-04-01T22:18:53.178Z,16.33
2019-04-01T22:21:19.120Z,16.17
2019-04-01T22:23:45.063Z,16.03
2019-04-01T22:26:10.957Z,15.90
2019-04-01T22:28:36.951Z,15.90
2019-04-01T22:31:02.866Z,16.03
2019-04-01T22:33:28.775Z,15.87
2019-04-01T22:35:54.693Z,15.63
2019-04-01T22:38:25.323Z,14.63
2019-04-01T22:40:48.716Z,16.07
2019-04-01T22:43:14.613Z,15.40
2019-04-01T22:45:40.494Z,16.03
2019-04-01T22:48:06.524Z,15.53
2019-04-01T22:50:32.521Z,15.53
2019-04-01T22:52:58.406Z,15.53
2019-04-01T22:55:24.530Z,14.57
2019-04-01T22:57:50.502Z,17.00
2019-04-01T23:00:17.487Z,15.50
2019-04-01T23:02:44.425Z,16.10
2019-04-01T23:05:10.544Z,16.43
2019-04-01T23:07:36.549Z,15.47
2019-04-01T23:10:05.307Z,15.63
2019-04-01T23:12:31.204Z,16.00
2019-04-01T23:14:57.223Z,15.27
2019-04-01T23:17:23.123Z,17.10
2019-04-01T23:19:49.032Z,15.50
2019-04-01T23:22:15.110Z,16.20
2019-04-01T23:24:41.121Z,16.10
2019-04-01T23:27:07.018Z,15.20
2019-04-01T23:29:33.055Z,14.43
2019-04-01T23:31:58.931Z,14.60
2019-04-01T23:34:24.816Z,15.70
2019-04-01T23:36:50.729Z,14.90
2019-04-01T23:39:16.640Z,14.93
2019-04-01T23:41:42.700Z,14.57
2019-04-01T23:44:08.625Z,15.70
2019-04-01T23:46:34.606Z,15.03
2019-04-01T23:49:00.573Z,15.70
2019-04-01T23:51:26.472Z,15.27
2019-04-01T23:53:52.370Z,16.20
2019-04-01T23:56:18.641Z,15.73
2019-04-01T23:58:44.529Z,15.60
